Terminal Aerodrome Forecast
Issued by NWS Missoula, MT

Home | Current Version | Previous Version | Text Only | Print | Product List | Glossary On
Versions: 1 2 3 4 5 6 7 8 9 10 11 12 13 14 15
122
FTUS45 KMSO 071121
TAFMSO
TAF
KMSO 071121Z 0712/0812 34006KT P6SM FEW150
     FM071400 VRB03KT P6SM VCFG FEW005 SCT100
     FM071800 VRB03KT P6SM SCT050 BKN100=

USA.gov is the U.S. government's official web portal to all federal, state and local government web resources and services.